sensor_id;sensor_type;location;lat;lon;timestamp;P1;durP1;ratioP1;P2;durP2;ratioP2
66402;SDS011;53212;52.112;5.144;2023-04-15T00:01:49;5.20;;;4.30;;
66402;SDS011;53212;52.112;5.144;2023-04-15T00:04:14;7.80;;;4.50;;
66402;SDS011;53212;52.112;5.144;2023-04-15T00:06:40;8.40;;;4.70;;
66402;SDS011;53212;52.112;5.144;2023-04-15T00:09:05;6.90;;;4.70;;
66402;SDS011;53212;52.112;5.144;2023-04-15T00:11:31;8.40;;;4.80;;
66402;SDS011;53212;52.112;5.144;2023-04-15T00:13:56;7.30;;;4.90;;
66402;SDS011;53212;52.112;5.144;2023-04-15T00:16:22;5.80;;;5.00;;
66402;SDS011;53212;52.112;5.144;2023-04-15T00:18:48;9.10;;;4.80;;
66402;SDS011;53212;52.112;5.144;2023-04-15T00:21:13;7.10;;;4.70;;
66402;SDS011;53212;52.112;5.144;2023-04-15T00:23:39;8.40;;;4.90;;
66402;SDS011;53212;52.112;5.144;2023-04-15T00:26:04;8.40;;;5.00;;
66402;SDS011;53212;52.112;5.144;2023-04-15T00:28:30;7.70;;;4.60;;
66402;SDS011;53212;52.112;5.144;2023-04-15T00:30:56;10.10;;;5.50;;
66402;SDS011;53212;52.112;5.144;2023-04-15T00:33:21;7.30;;;5.70;;
66402;SDS011;53212;52.112;5.144;2023-04-15T00:35:47;7.60;;;5.00;;
66402;SDS011;53212;52.112;5.144;2023-04-15T00:38:12;5.40;;;4.70;;
66402;SDS011;53212;52.112;5.144;2023-04-15T00:40:38;7.30;;;4.70;;
66402;SDS011;53212;52.112;5.144;2023-04-15T00:43:03;6.60;;;4.70;;
66402;SDS011;53212;52.112;5.144;2023-04-15T00:45:29;5.20;;;4.60;;
66402;SDS011;53212;52.112;5.144;2023-04-15T00:47:55;6.90;;;4.50;;
66402;SDS011;53212;52.112;5.144;2023-04-15T00:50:21;8.20;;;4.90;;
66402;SDS011;53212;52.112;5.144;2023-04-15T00:52:47;7.70;;;4.70;;
66402;SDS011;53212;52.112;5.144;2023-04-15T00:55:12;8.70;;;4.60;;
66402;SDS011;53212;52.112;5.144;2023-04-15T00:57:38;8.00;;;4.80;;
66402;SDS011;53212;52.112;5.144;2023-04-15T01:00:05;6.40;;;4.70;;
66402;SDS011;53212;52.112;5.144;2023-04-15T01:02:35;4.90;;;4.50;;
66402;SDS011;53212;52.112;5.144;2023-04-15T01:05:01;7.50;;;5.00;;
66402;SDS011;53212;52.112;5.144;2023-04-15T01:07:28;7.10;;;5.00;;
66402;SDS011;53212;52.112;5.144;2023-04-15T01:09:54;6.20;;;4.50;;
66402;SDS011;53212;52.112;5.144;2023-04-15T01:12:19;8.00;;;4.90;;
66402;SDS011;53212;52.112;5.144;2023-04-15T01:14:45;6.10;;;4.60;;
66402;SDS011;53212;52.112;5.144;2023-04-15T01:17:10;7.40;;;4.70;;
66402;SDS011;53212;52.112;5.144;2023-04-15T01:19:37;5.80;;;4.70;;
66402;SDS011;53212;52.112;5.144;2023-04-15T01:22:03;6.00;;;4.50;;
66402;SDS011;53212;52.112;5.144;2023-04-15T01:24:33;5.60;;;4.80;;
66402;SDS011;53212;52.112;5.144;2023-04-15T01:27:00;7.50;;;4.40;;
66402;SDS011;53212;52.112;5.144;2023-04-15T01:29:26;6.40;;;4.90;;
66402;SDS011;53212;52.112;5.144;2023-04-15T01:31:53;6.90;;;4.50;;
66402;SDS011;53212;52.112;5.144;2023-04-15T01:34:20;7.80;;;4.80;;
66402;SDS011;53212;52.112;5.144;2023-04-15T01:36:46;8.40;;;4.90;;
66402;SDS011;53212;52.112;5.144;2023-04-15T01:39:12;8.00;;;4.90;;
66402;SDS011;53212;52.112;5.144;2023-04-15T01:41:37;6.60;;;5.20;;
66402;SDS011;53212;52.112;5.144;2023-04-15T01:44:03;5.20;;;4.60;;
66402;SDS011;53212;52.112;5.144;2023-04-15T01:46:29;6.20;;;5.00;;
66402;SDS011;53212;52.112;5.144;2023-04-15T01:48:54;6.70;;;5.00;;
66402;SDS011;53212;52.112;5.144;2023-04-15T01:51:20;5.50;;;4.10;;
66402;SDS011;53212;52.112;5.144;2023-04-15T01:53:46;5.70;;;4.20;;
66402;SDS011;53212;52.112;5.144;2023-04-15T01:56:11;5.90;;;4.90;;
66402;SDS011;53212;52.112;5.144;2023-04-15T01:58:37;7.40;;;4.70;;
66402;SDS011;53212;52.112;5.144;2023-04-15T02:01:02;8.80;;;5.30;;
66402;SDS011;53212;52.112;5.144;2023-04-15T02:03:28;5.30;;;4.60;;
66402;SDS011;53212;52.112;5.144;2023-04-15T02:05:54;6.60;;;4.50;;
66402;SDS011;53212;52.112;5.144;2023-04-15T02:08:20;7.50;;;5.00;;
66402;SDS011;53212;52.112;5.144;2023-04-15T02:10:45;8.90;;;5.20;;
66402;SDS011;53212;52.112;5.144;2023-04-15T02:13:10;5.60;;;4.90;;
66402;SDS011;53212;52.112;5.144;2023-04-15T02:15:36;6.20;;;5.10;;
66402;SDS011;53212;52.112;5.144;2023-04-15T02:18:01;4.80;;;4.30;;
66402;SDS011;53212;52.112;5.144;2023-04-15T02:20:27;7.00;;;4.60;;
66402;SDS011;53212;52.112;5.144;2023-04-15T02:22:54;7.40;;;5.00;;
66402;SDS011;53212;52.112;5.144;2023-04-15T02:25:20;6.00;;;4.60;;
66402;SDS011;53212;52.112;5.144;2023-04-15T02:27:46;5.70;;;4.90;;
66402;SDS011;53212;52.112;5.144;2023-04-15T02:30:11;9.20;;;5.30;;
66402;SDS011;53212;52.112;5.144;2023-04-15T02:32:37;5.60;;;5.10;;
66402;SDS011;53212;52.112;5.144;2023-04-15T02:35:04;6.70;;;5.40;;
66402;SDS011;53212;52.112;5.144;2023-04-15T02:37:32;8.70;;;5.50;;
66402;SDS011;53212;52.112;5.144;2023-04-15T02:40:06;6.30;;;4.80;;
66402;SDS011;53212;52.112;5.144;2023-04-15T02:42:34;6.80;;;5.20;;
66402;SDS011;53212;52.112;5.144;2023-04-15T02:44:59;6.20;;;5.20;;
66402;SDS011;53212;52.112;5.144;2023-04-15T02:47:25;6.60;;;5.10;;
66402;SDS011;53212;52.112;5.144;2023-04-15T02:49:51;7.00;;;5.20;;
66402;SDS011;53212;52.112;5.144;2023-04-15T02:52:16;5.80;;;5.20;;
66402;SDS011;53212;52.112;5.144;2023-04-15T02:54:42;6.50;;;5.70;;
66402;SDS011;53212;52.112;5.144;2023-04-15T02:57:07;6.20;;;5.10;;
66402;SDS011;53212;52.112;5.144;2023-04-15T02:59:32;7.70;;;5.60;;
66402;SDS011;53212;52.112;5.144;2023-04-15T03:01:58;8.60;;;5.30;;
66402;SDS011;53212;52.112;5.144;2023-04-15T03:04:25;5.90;;;5.30;;
66402;SDS011;53212;52.112;5.144;2023-04-15T03:06:51;7.00;;;5.00;;
66402;SDS011;53212;52.112;5.144;2023-04-15T03:09:16;7.00;;;5.20;;
66402;SDS011;53212;52.112;5.144;2023-04-15T03:11:42;8.40;;;6.00;;
66402;SDS011;53212;52.112;5.144;2023-04-15T03:14:07;8.00;;;6.30;;
66402;SDS011;53212;52.112;5.144;2023-04-15T03:16:32;7.90;;;5.70;;
66402;SDS011;53212;52.112;5.144;2023-04-15T03:18:58;7.70;;;5.50;;
66402;SDS011;53212;52.112;5.144;2023-04-15T03:21:23;7.50;;;5.80;;
66402;SDS011;53212;52.112;5.144;2023-04-15T03:23:49;8.50;;;5.60;;
66402;SDS011;53212;52.112;5.144;2023-04-15T03:26:27;7.20;;;5.70;;
66402;SDS011;53212;52.112;5.144;2023-04-15T03:28:54;8.90;;;5.90;;
66402;SDS011;53212;52.112;5.144;2023-04-15T03:31:20;7.90;;;6.20;;
66402;SDS011;53212;52.112;5.144;2023-04-15T03:33:45;8.80;;;6.10;;
66402;SDS011;53212;52.112;5.144;2023-04-15T03:36:11;8.50;;;6.40;;
66402;SDS011;53212;52.112;5.144;2023-04-15T03:38:36;8.60;;;5.70;;
66402;SDS011;53212;52.112;5.144;2023-04-15T03:41:02;7.50;;;5.70;;
66402;SDS011;53212;52.112;5.144;2023-04-15T03:43:27;6.70;;;5.30;;
66402;SDS011;53212;52.112;5.144;2023-04-15T03:45:52;7.20;;;5.90;;
66402;SDS011;53212;52.112;5.144;2023-04-15T03:48:18;10.60;;;5.40;;
66402;SDS011;53212;52.112;5.144;2023-04-15T03:50:43;8.20;;;5.90;;
66402;SDS011;53212;52.112;5.144;2023-04-15T03:53:10;6.90;;;5.70;;
66402;SDS011;53212;52.112;5.144;2023-04-15T03:55:35;8.40;;;6.30;;
66402;SDS011;53212;52.112;5.144;2023-04-15T03:58:01;7.00;;;6.30;;
66402;SDS011;53212;52.112;5.144;2023-04-15T04:00:26;6.60;;;5.90;;
66402;SDS011;53212;52.112;5.144;2023-04-15T04:02:51;6.90;;;6.10;;
66402;SDS011;53212;52.112;5.144;2023-04-15T04:05:17;7.00;;;5.30;;
66402;SDS011;53212;52.112;5.144;2023-04-15T04:07:42;8.40;;;6.20;;
66402;SDS011;53212;52.112;5.144;2023-04-15T04:10:08;8.40;;;6.20;;
66402;SDS011;53212;52.112;5.144;2023-04-15T04:12:34;10.60;;;7.00;;
66402;SDS011;53212;52.112;5.144;2023-04-15T04:14:59;6.70;;;6.00;;
66402;SDS011;53212;52.112;5.144;2023-04-15T04:17:24;7.10;;;5.90;;
66402;SDS011;53212;52.112;5.144;2023-04-15T04:19:50;8.00;;;6.20;;
66402;SDS011;53212;52.112;5.144;2023-04-15T04:22:16;8.80;;;6.10;;
66402;SDS011;53212;52.112;5.144;2023-04-15T04:24:41;8.50;;;6.00;;
66402;SDS011;53212;52.112;5.144;2023-04-15T04:27:06;6.80;;;5.70;;
66402;SDS011;53212;52.112;5.144;2023-04-15T04:29:32;7.40;;;5.70;;
66402;SDS011;53212;52.112;5.144;2023-04-15T04:31:57;8.80;;;6.80;;
66402;SDS011;53212;52.112;5.144;2023-04-15T04:34:23;7.80;;;6.40;;
66402;SDS011;53212;52.112;5.144;2023-04-15T04:36:48;8.10;;;6.10;;
66402;SDS011;53212;52.112;5.144;2023-04-15T04:39:14;8.80;;;6.20;;
66402;SDS011;53212;52.112;5.144;2023-04-15T04:41:39;7.30;;;6.10;;
66402;SDS011;53212;52.112;5.144;2023-04-15T04:44:05;7.60;;;6.50;;
66402;SDS011;53212;52.112;5.144;2023-04-15T04:46:30;7.00;;;6.00;;
66402;SDS011;53212;52.112;5.144;2023-04-15T04:48:55;7.30;;;6.60;;
66402;SDS011;53212;52.112;5.144;2023-04-15T04:51:21;7.30;;;6.60;;
66402;SDS011;53212;52.112;5.144;2023-04-15T04:53:46;8.10;;;6.90;;
66402;SDS011;53212;52.112;5.144;2023-04-15T04:56:12;9.40;;;6.30;;
66402;SDS011;53212;52.112;5.144;2023-04-15T04:58:37;8.40;;;6.90;;
66402;SDS011;53212;52.112;5.144;2023-04-15T05:01:02;7.80;;;6.60;;
66402;SDS011;53212;52.112;5.144;2023-04-15T05:03:28;10.10;;;6.60;;
66402;SDS011;53212;52.112;5.144;2023-04-15T05:05:54;8.20;;;6.70;;
66402;SDS011;53212;52.112;5.144;2023-04-15T05:08:19;9.10;;;6.70;;
66402;SDS011;53212;52.112;5.144;2023-04-15T05:10:45;9.50;;;7.10;;
66402;SDS011;53212;52.112;5.144;2023-04-15T05:13:10;8.10;;;6.90;;
66402;SDS011;53212;52.112;5.144;2023-04-15T05:15:36;7.20;;;6.30;;
66402;SDS011;53212;52.112;5.144;2023-04-15T05:18:04;8.30;;;6.40;;
66402;SDS011;53212;52.112;5.144;2023-04-15T05:20:29;7.10;;;6.40;;
66402;SDS011;53212;52.112;5.144;2023-04-15T05:22:55;7.90;;;6.50;;
66402;SDS011;53212;52.112;5.144;2023-04-15T05:25:20;7.10;;;6.40;;
66402;SDS011;53212;52.112;5.144;2023-04-15T05:27:46;12.30;;;6.20;;
66402;SDS011;53212;52.112;5.144;2023-04-15T05:30:11;9.60;;;6.50;;
66402;SDS011;53212;52.112;5.144;2023-04-15T05:32:37;7.20;;;6.20;;
66402;SDS011;53212;52.112;5.144;2023-04-15T05:35:02;7.70;;;6.30;;
66402;SDS011;53212;52.112;5.144;2023-04-15T05:37:28;7.60;;;6.20;;
66402;SDS011;53212;52.112;5.144;2023-04-15T05:39:53;7.20;;;6.30;;
66402;SDS011;53212;52.112;5.144;2023-04-15T05:42:19;7.50;;;6.70;;
66402;SDS011;53212;52.112;5.144;2023-04-15T05:44:44;8.30;;;6.10;;
66402;SDS011;53212;52.112;5.144;2023-04-15T05:47:10;7.20;;;6.40;;
66402;SDS011;53212;52.112;5.144;2023-04-15T05:49:36;7.70;;;6.50;;
66402;SDS011;53212;52.112;5.144;2023-04-15T05:52:02;6.80;;;6.00;;
66402;SDS011;53212;52.112;5.144;2023-04-15T05:54:27;6.60;;;6.00;;
66402;SDS011;53212;52.112;5.144;2023-04-15T05:56:53;6.40;;;5.80;;
66402;SDS011;53212;52.112;5.144;2023-04-15T05:59:19;6.60;;;6.00;;
66402;SDS011;53212;52.112;5.144;2023-04-15T06:01:44;6.30;;;5.70;;
66402;SDS011;53212;52.112;5.144;2023-04-15T06:04:10;7.50;;;5.70;;
66402;SDS011;53212;52.112;5.144;2023-04-15T06:06:36;6.20;;;5.60;;
66402;SDS011;53212;52.112;5.144;2023-04-15T06:09:02;6.20;;;5.70;;
66402;SDS011;53212;52.112;5.144;2023-04-15T06:11:28;7.30;;;5.80;;
66402;SDS011;53212;52.112;5.144;2023-04-15T06:13:54;6.60;;;5.80;;
66402;SDS011;53212;52.112;5.144;2023-04-15T06:16:20;6.50;;;5.90;;
66402;SDS011;53212;52.112;5.144;2023-04-15T06:18:47;6.50;;;5.90;;
66402;SDS011;53212;52.112;5.144;2023-04-15T06:21:12;7.20;;;6.50;;
66402;SDS011;53212;52.112;5.144;2023-04-15T06:23:38;7.00;;;6.40;;
66402;SDS011;53212;52.112;5.144;2023-04-15T06:26:05;8.00;;;6.80;;
66402;SDS011;53212;52.112;5.144;2023-04-15T06:28:31;6.70;;;6.10;;
66402;SDS011;53212;52.112;5.144;2023-04-15T06:30:56;7.40;;;6.60;;
66402;SDS011;53212;52.112;5.144;2023-04-15T06:33:22;7.30;;;6.50;;
66402;SDS011;53212;52.112;5.144;2023-04-15T06:35:47;8.10;;;6.80;;
66402;SDS011;53212;52.112;5.144;2023-04-15T06:38:13;7.50;;;6.40;;
66402;SDS011;53212;52.112;5.144;2023-04-15T06:40:39;7.10;;;6.50;;
66402;SDS011;53212;52.112;5.144;2023-04-15T06:43:05;7.60;;;6.80;;
66402;SDS011;53212;52.112;5.144;2023-04-15T06:45:30;7.40;;;6.70;;
66402;SDS011;53212;52.112;5.144;2023-04-15T06:47:56;7.50;;;6.80;;
66402;SDS011;53212;52.112;5.144;2023-04-15T06:50:21;7.70;;;6.90;;
66402;SDS011;53212;52.112;5.144;2023-04-15T06:52:47;7.90;;;7.10;;
66402;SDS011;53212;52.112;5.144;2023-04-15T06:55:12;8.00;;;6.80;;
66402;SDS011;53212;52.112;5.144;2023-04-15T06:57:39;8.10;;;7.20;;
66402;SDS011;53212;52.112;5.144;2023-04-15T07:00:04;8.30;;;7.40;;
66402;SDS011;53212;52.112;5.144;2023-04-15T07:02:32;8.00;;;7.30;;
66402;SDS011;53212;52.112;5.144;2023-04-15T07:04:58;8.90;;;7.80;;
66402;SDS011;53212;52.112;5.144;2023-04-15T07:07:23;10.60;;;7.70;;
66402;SDS011;53212;52.112;5.144;2023-04-15T07:09:49;8.10;;;7.10;;
66402;SDS011;53212;52.112;5.144;2023-04-15T07:12:15;8.60;;;7.70;;
66402;SDS011;53212;52.112;5.144;2023-04-15T07:14:40;8.80;;;8.00;;
66402;SDS011;53212;52.112;5.144;2023-04-15T07:17:06;9.50;;;8.60;;
66402;SDS011;53212;52.112;5.144;2023-04-15T07:19:32;9.70;;;8.80;;
66402;SDS011;53212;52.112;5.144;2023-04-15T07:21:58;8.80;;;8.00;;
66402;SDS011;53212;52.112;5.144;2023-04-15T07:24:23;8.60;;;7.70;;
66402;SDS011;53212;52.112;5.144;2023-04-15T07:26:52;8.60;;;7.60;;
66402;SDS011;53212;52.112;5.144;2023-04-15T07:29:18;8.30;;;7.50;;
66402;SDS011;53212;52.112;5.144;2023-04-15T07:31:44;8.50;;;7.40;;
66402;SDS011;53212;52.112;5.144;2023-04-15T07:34:10;9.40;;;8.50;;
66402;SDS011;53212;52.112;5.144;2023-04-15T07:36:35;7.90;;;7.20;;
66402;SDS011;53212;52.112;5.144;2023-04-15T07:39:01;7.40;;;6.80;;
66402;SDS011;53212;52.112;5.144;2023-04-15T07:41:28;7.30;;;6.60;;
66402;SDS011;53212;52.112;5.144;2023-04-15T07:43:55;6.10;;;5.50;;
66402;SDS011;53212;52.112;5.144;2023-04-15T07:46:20;6.70;;;6.00;;
66402;SDS011;53212;52.112;5.144;2023-04-15T07:48:48;6.40;;;5.70;;
66402;SDS011;53212;52.112;5.144;2023-04-15T07:51:13;5.50;;;5.00;;
66402;SDS011;53212;52.112;5.144;2023-04-15T07:53:39;5.70;;;5.10;;
66402;SDS011;53212;52.112;5.144;2023-04-15T07:56:04;7.60;;;5.30;;
66402;SDS011;53212;52.112;5.144;2023-04-15T07:58:30;5.90;;;5.40;;
66402;SDS011;53212;52.112;5.144;2023-04-15T08:00:56;5.80;;;5.20;;
66402;SDS011;53212;52.112;5.144;2023-04-15T08:03:22;5.60;;;5.10;;
66402;SDS011;53212;52.112;5.144;2023-04-15T08:05:48;6.40;;;5.40;;
66402;SDS011;53212;52.112;5.144;2023-04-15T08:08:13;6.40;;;5.50;;
66402;SDS011;53212;52.112;5.144;2023-04-15T08:10:39;6.60;;;6.00;;
66402;SDS011;53212;52.112;5.144;2023-04-15T08:13:04;8.20;;;6.30;;
66402;SDS011;53212;52.112;5.144;2023-04-15T08:15:30;7.10;;;6.40;;
66402;SDS011;53212;52.112;5.144;2023-04-15T08:17:57;7.00;;;6.40;;
66402;SDS011;53212;52.112;5.144;2023-04-15T08:20:24;6.90;;;6.20;;
66402;SDS011;53212;52.112;5.144;2023-04-15T08:22:50;6.80;;;6.20;;
66402;SDS011;53212;52.112;5.144;2023-04-15T08:25:17;7.70;;;5.90;;
66402;SDS011;53212;52.112;5.144;2023-04-15T08:27:43;7.10;;;6.40;;
66402;SDS011;53212;52.112;5.144;2023-04-15T08:30:10;6.90;;;6.20;;
66402;SDS011;53212;52.112;5.144;2023-04-15T08:32:35;7.80;;;6.60;;
66402;SDS011;53212;52.112;5.144;2023-04-15T08:35:02;6.50;;;5.90;;
66402;SDS011;53212;52.112;5.144;2023-04-15T08:37:27;6.90;;;6.20;;
66402;SDS011;53212;52.112;5.144;2023-04-15T08:39:53;6.10;;;5.50;;
66402;SDS011;53212;52.112;5.144;2023-04-15T08:42:21;6.20;;;5.40;;
66402;SDS011;53212;52.112;5.144;2023-04-15T08:44:50;7.10;;;5.40;;
66402;SDS011;53212;52.112;5.144;2023-04-15T08:47:15;6.60;;;5.60;;
66402;SDS011;53212;52.112;5.144;2023-04-15T08:49:45;6.20;;;5.70;;
66402;SDS011;53212;52.112;5.144;2023-04-15T08:52:17;6.10;;;5.50;;
66402;SDS011;53212;52.112;5.144;2023-04-15T08:54:43;5.50;;;4.70;;
66402;SDS011;53212;52.112;5.144;2023-04-15T08:57:09;5.50;;;5.00;;
66402;SDS011;53212;52.112;5.144;2023-04-15T08:59:34;6.10;;;5.40;;
66402;SDS011;53212;52.112;5.144;2023-04-15T09:02:00;8.40;;;4.90;;
66402;SDS011;53212;52.112;5.144;2023-04-15T09:04:27;6.00;;;5.40;;
66402;SDS011;53212;52.112;5.144;2023-04-15T09:06:52;6.40;;;5.20;;
66402;SDS011;53212;52.112;5.144;2023-04-15T09:09:17;5.30;;;4.10;;
66402;SDS011;53212;52.112;5.144;2023-04-15T09:11:43;4.30;;;3.70;;
66402;SDS011;53212;52.112;5.144;2023-04-15T09:14:08;4.20;;;3.80;;
66402;SDS011;53212;52.112;5.144;2023-04-15T09:17:00;3.90;;;3.50;;
66402;SDS011;53212;52.112;5.144;2023-04-15T09:19:27;4.20;;;3.90;;
66402;SDS011;53212;52.112;5.144;2023-04-15T09:21:54;3.80;;;3.50;;
66402;SDS011;53212;52.112;5.144;2023-04-15T09:24:21;6.30;;;3.20;;
66402;SDS011;53212;52.112;5.144;2023-04-15T09:26:47;3.40;;;3.10;;
66402;SDS011;53212;52.112;5.144;2023-04-15T09:29:16;4.50;;;2.90;;
66402;SDS011;53212;52.112;5.144;2023-04-15T09:31:42;4.30;;;3.50;;
66402;SDS011;53212;52.112;5.144;2023-04-15T09:34:08;5.00;;;3.20;;
66402;SDS011;53212;52.112;5.144;2023-04-15T09:39:12;6.00;;;3.40;;
66402;SDS011;53212;52.112;5.144;2023-04-15T09:41:38;4.40;;;4.00;;
66402;SDS011;53212;52.112;5.144;2023-04-15T09:44:05;4.10;;;3.60;;
66402;SDS011;53212;52.112;5.144;2023-04-15T09:46:44;4.50;;;4.10;;
66402;SDS011;53212;52.112;5.144;2023-04-15T09:49:10;6.90;;;4.10;;
66402;SDS011;53212;52.112;5.144;2023-04-15T09:51:36;5.10;;;3.80;;
66402;SDS011;53212;52.112;5.144;2023-04-15T09:54:02;4.70;;;4.00;;
66402;SDS011;53212;52.112;5.144;2023-04-15T09:56:38;4.40;;;3.70;;
66402;SDS011;53212;52.112;5.144;2023-04-15T09:59:07;3.90;;;3.50;;
66402;SDS011;53212;52.112;5.144;2023-04-15T10:01:33;4.30;;;3.40;;
66402;SDS011;53212;52.112;5.144;2023-04-15T10:04:02;3.40;;;3.10;;
66402;SDS011;53212;52.112;5.144;2023-04-15T10:06:29;3.90;;;3.40;;
66402;SDS011;53212;52.112;5.144;2023-04-15T10:08:55;4.00;;;3.40;;
66402;SDS011;53212;52.112;5.144;2023-04-15T10:11:22;4.50;;;3.00;;
66402;SDS011;53212;52.112;5.144;2023-04-15T10:13:49;3.80;;;3.00;;
66402;SDS011;53212;52.112;5.144;2023-04-15T10:16:18;2.90;;;2.40;;
66402;SDS011;53212;52.112;5.144;2023-04-15T10:18:46;3.30;;;2.80;;
66402;SDS011;53212;52.112;5.144;2023-04-15T10:21:14;3.40;;;2.10;;
66402;SDS011;53212;52.112;5.144;2023-04-15T10:23:44;3.40;;;2.50;;
66402;SDS011;53212;52.112;5.144;2023-04-15T10:26:10;3.60;;;2.80;;
66402;SDS011;53212;52.112;5.144;2023-04-15T10:28:37;3.60;;;2.50;;
66402;SDS011;53212;52.112;5.144;2023-04-15T10:31:03;2.50;;;2.30;;
66402;SDS011;53212;52.112;5.144;2023-04-15T10:33:29;2.40;;;2.30;;
66402;SDS011;53212;52.112;5.144;2023-04-15T10:35:56;2.50;;;2.30;;
66402;SDS011;53212;52.112;5.144;2023-04-15T10:38:38;3.30;;;2.50;;
66402;SDS011;53212;52.112;5.144;2023-04-15T10:41:22;3.70;;;2.10;;
66402;SDS011;53212;52.112;5.144;2023-04-15T10:43:59;3.10;;;2.30;;
66402;SDS011;53212;52.112;5.144;2023-04-15T10:46:39;2.80;;;2.60;;
66402;SDS011;53212;52.112;5.144;2023-04-15T10:49:11;3.20;;;2.90;;
66402;SDS011;53212;52.112;5.144;2023-04-15T10:51:41;3.20;;;2.90;;
66402;SDS011;53212;52.112;5.144;2023-04-15T10:54:16;3.40;;;3.10;;
66402;SDS011;53212;52.112;5.144;2023-04-15T10:59:28;3.80;;;3.40;;
66402;SDS011;53212;52.112;5.144;2023-04-15T11:01:56;3.70;;;3.40;;
66402;SDS011;53212;52.112;5.144;2023-04-15T11:04:52;3.10;;;2.80;;
66402;SDS011;53212;52.112;5.144;2023-04-15T11:12:43;4.90;;;3.30;;
66402;SDS011;53212;52.112;5.144;2023-04-15T11:20:54;3.70;;;2.70;;
66402;SDS011;53212;52.112;5.144;2023-04-15T11:23:38;3.40;;;3.10;;
66402;SDS011;53212;52.112;5.144;2023-04-15T11:26:07;4.10;;;3.20;;
66402;SDS011;53212;52.112;5.144;2023-04-15T11:28:34;3.40;;;3.10;;
66402;SDS011;53212;52.112;5.144;2023-04-15T11:31:11;3.90;;;3.20;;
66402;SDS011;53212;52.112;5.144;2023-04-15T11:33:45;3.60;;;3.40;;
66402;SDS011;53212;52.112;5.144;2023-04-15T11:36:17;3.10;;;2.80;;
66402;SDS011;53212;52.112;5.144;2023-04-15T11:38:45;4.10;;;3.30;;
66402;SDS011;53212;52.112;5.144;2023-04-15T11:41:11;3.90;;;3.60;;
66402;SDS011;53212;52.112;5.144;2023-04-15T11:43:40;4.00;;;2.90;;
66402;SDS011;53212;52.112;5.144;2023-04-15T11:46:06;4.60;;;2.50;;
66402;SDS011;53212;52.112;5.144;2023-04-15T11:48:34;2.40;;;2.20;;
66402;SDS011;53212;52.112;5.144;2023-04-15T11:51:05;2.10;;;2.00;;
66402;SDS011;53212;52.112;5.144;2023-04-15T11:56:10;2.30;;;1.70;;
66402;SDS011;53212;52.112;5.144;2023-04-15T11:58:42;2.70;;;2.00;;
66402;SDS011;53212;52.112;5.144;2023-04-15T12:01:10;2.50;;;2.30;;
66402;SDS011;53212;52.112;5.144;2023-04-15T12:03:39;3.30;;;2.30;;
66402;SDS011;53212;52.112;5.144;2023-04-15T12:06:09;2.40;;;2.20;;
66402;SDS011;53212;52.112;5.144;2023-04-15T12:13:58;2.60;;;2.10;;
66402;SDS011;53212;52.112;5.144;2023-04-15T12:16:28;2.80;;;2.40;;
66402;SDS011;53212;52.112;5.144;2023-04-15T12:18:56;1.90;;;1.80;;
66402;SDS011;53212;52.112;5.144;2023-04-15T12:21:26;3.10;;;2.20;;
66402;SDS011;53212;52.112;5.144;2023-04-15T12:24:01;3.10;;;2.40;;
66402;SDS011;53212;52.112;5.144;2023-04-15T12:26:42;3.80;;;2.00;;
66402;SDS011;53212;52.112;5.144;2023-04-15T12:31:51;3.10;;;2.10;;
66402;SDS011;53212;52.112;5.144;2023-04-15T12:34:30;2.30;;;1.80;;
66402;SDS011;53212;52.112;5.144;2023-04-15T12:37:01;2.60;;;2.40;;
66402;SDS011;53212;52.112;5.144;2023-04-15T12:39:29;2.80;;;2.30;;
66402;SDS011;53212;52.112;5.144;2023-04-15T12:41:57;2.10;;;1.90;;
66402;SDS011;53212;52.112;5.144;2023-04-15T12:44:25;5.00;;;2.60;;
66402;SDS011;53212;52.112;5.144;2023-04-15T12:46:52;3.20;;;1.90;;
66402;SDS011;53212;52.112;5.144;2023-04-15T12:49:18;2.20;;;2.00;;
66402;SDS011;53212;52.112;5.144;2023-04-15T12:51:47;3.90;;;2.30;;
66402;SDS011;53212;52.112;5.144;2023-04-15T12:54:13;2.60;;;2.40;;
66402;SDS011;53212;52.112;5.144;2023-04-15T12:56:38;3.10;;;2.70;;
66402;SDS011;53212;52.112;5.144;2023-04-15T12:59:04;2.60;;;2.40;;
66402;SDS011;53212;52.112;5.144;2023-04-15T13:01:29;2.60;;;2.10;;
66402;SDS011;53212;52.112;5.144;2023-04-15T13:03:55;3.10;;;2.30;;
66402;SDS011;53212;52.112;5.144;2023-04-15T13:06:21;2.70;;;2.40;;
66402;SDS011;53212;52.112;5.144;2023-04-15T13:08:46;3.50;;;1.80;;
66402;SDS011;53212;52.112;5.144;2023-04-15T13:11:12;2.80;;;2.10;;
66402;SDS011;53212;52.112;5.144;2023-04-15T13:13:37;3.30;;;2.10;;
66402;SDS011;53212;52.112;5.144;2023-04-15T13:16:03;1.90;;;1.60;;
66402;SDS011;53212;52.112;5.144;2023-04-15T13:18:28;5.20;;;1.70;;
66402;SDS011;53212;52.112;5.144;2023-04-15T13:20:55;5.20;;;1.90;;
66402;SDS011;53212;52.112;5.144;2023-04-15T13:23:21;2.80;;;1.60;;
66402;SDS011;53212;52.112;5.144;2023-04-15T13:25:46;4.70;;;1.70;;
66402;SDS011;53212;52.112;5.144;2023-04-15T13:28:12;3.40;;;1.80;;
66402;SDS011;53212;52.112;5.144;2023-04-15T13:30:38;3.00;;;1.80;;
66402;SDS011;53212;52.112;5.144;2023-04-15T13:33:04;2.70;;;1.70;;
66402;SDS011;53212;52.112;5.144;2023-04-15T13:35:31;3.40;;;1.90;;
66402;SDS011;53212;52.112;5.144;2023-04-15T13:37:57;2.10;;;1.70;;
66402;SDS011;53212;52.112;5.144;2023-04-15T13:40:22;2.50;;;1.40;;
66402;SDS011;53212;52.112;5.144;2023-04-15T13:42:48;3.60;;;1.30;;
66402;SDS011;53212;52.112;5.144;2023-04-15T13:45:13;1.80;;;1.40;;
66402;SDS011;53212;52.112;5.144;2023-04-15T13:47:39;1.80;;;1.00;;
66402;SDS011;53212;52.112;5.144;2023-04-15T13:50:05;2.10;;;1.20;;
66402;SDS011;53212;52.112;5.144;2023-04-15T13:52:31;1.80;;;1.20;;
66402;SDS011;53212;52.112;5.144;2023-04-15T13:54:56;1.30;;;1.10;;
66402;SDS011;53212;52.112;5.144;2023-04-15T13:57:22;1.70;;;1.10;;
66402;SDS011;53212;52.112;5.144;2023-04-15T13:59:47;3.20;;;1.20;;
66402;SDS011;53212;52.112;5.144;2023-04-15T14:02:13;6.10;;;1.10;;
66402;SDS011;53212;52.112;5.144;2023-04-15T14:04:38;2.60;;;1.30;;
66402;SDS011;53212;52.112;5.144;2023-04-15T14:07:04;2.30;;;1.20;;
66402;SDS011;53212;52.112;5.144;2023-04-15T14:09:30;3.50;;;1.40;;
66402;SDS011;53212;52.112;5.144;2023-04-15T14:11:55;2.60;;;1.30;;
66402;SDS011;53212;52.112;5.144;2023-04-15T14:14:21;2.70;;;1.40;;
66402;SDS011;53212;52.112;5.144;2023-04-15T14:16:46;2.40;;;1.20;;
66402;SDS011;53212;52.112;5.144;2023-04-15T14:19:12;3.50;;;1.60;;
66402;SDS011;53212;52.112;5.144;2023-04-15T14:21:38;2.50;;;1.40;;
66402;SDS011;53212;52.112;5.144;2023-04-15T14:24:04;3.00;;;1.30;;
66402;SDS011;53212;52.112;5.144;2023-04-15T14:26:30;1.90;;;1.10;;
66402;SDS011;53212;52.112;5.144;2023-04-15T14:28:55;1.80;;;1.00;;
66402;SDS011;53212;52.112;5.144;2023-04-15T14:31:21;1.80;;;0.90;;
66402;SDS011;53212;52.112;5.144;2023-04-15T14:33:46;2.20;;;1.40;;
66402;SDS011;53212;52.112;5.144;2023-04-15T14:36:11;4.60;;;1.10;;
66402;SDS011;53212;52.112;5.144;2023-04-15T14:38:37;1.90;;;1.00;;
66402;SDS011;53212;52.112;5.144;2023-04-15T14:41:07;1.60;;;1.00;;
66402;SDS011;53212;52.112;5.144;2023-04-15T14:43:33;3.60;;;1.20;;
66402;SDS011;53212;52.112;5.144;2023-04-15T14:45:59;3.50;;;1.70;;
66402;SDS011;53212;52.112;5.144;2023-04-15T14:48:24;4.00;;;1.40;;
66402;SDS011;53212;52.112;5.144;2023-04-15T14:50:50;3.20;;;1.20;;
66402;SDS011;53212;52.112;5.144;2023-04-15T14:53:16;2.50;;;1.10;;
66402;SDS011;53212;52.112;5.144;2023-04-15T14:55:42;4.50;;;1.50;;
66402;SDS011;53212;52.112;5.144;2023-04-15T14:58:08;3.90;;;1.60;;
66402;SDS011;53212;52.112;5.144;2023-04-15T15:00:34;2.50;;;0.90;;
66402;SDS011;53212;52.112;5.144;2023-04-15T15:03:00;2.10;;;1.20;;
66402;SDS011;53212;52.112;5.144;2023-04-15T15:05:26;6.30;;;1.40;;
66402;SDS011;53212;52.112;5.144;2023-04-15T15:07:51;6.50;;;1.50;;
66402;SDS011;53212;52.112;5.144;2023-04-15T15:10:17;4.00;;;1.60;;
66402;SDS011;53212;52.112;5.144;2023-04-15T15:12:43;7.10;;;1.70;;